Time;durP1;ratioP1;P1;durP2;ratioP2;P2;SDS_P1;SDS_P2;PMS_P1;PMS_P2;Temp;Humidity;BMP_temperature;BMP_pressure;BME280_temperature;BME280_humidity;BME280_pressure;Samples;Min_cycle;Max_cycle;Signal;HPM_P1;HPM_P2
2022/08/06 00:03:20;;;;;;;5.75;1.13;;;23.40;51.20;;;;;;10539193;28;20085;-54
2022/08/06 00:08:21;;;;;;;1.25;0.70;;;23.40;51.20;;;;;;10538579;28;20047;-53
2022/08/06 00:13:22;;;;;;;2.10;0.80;;;23.40;51.10;;;;;;10538480;28;20028;-54
2022/08/06 00:18:22;;;;;;;1.35;0.68;;;23.40;51.20;;;;;;10537892;28;20020;-54
2022/08/06 00:23:23;;;;;;;0.85;0.75;;;23.40;51.30;;;;;;10515332;28;20436;-53
2022/08/06 00:28:25;;;;;;;2.70;0.80;;;23.40;51.30;;;;;;10519561;28;20028;-53
2022/08/06 00:33:26;;;;;;;1.67;0.70;;;23.30;51.20;;;;;;10519974;28;20059;-54
2022/08/06 00:38:26;;;;;;;1.60;1.00;;;23.40;51.20;;;;;;10518695;28;20426;-54
2022/08/06 00:43:27;;;;;;;2.25;0.77;;;23.30;51.10;;;;;;10537254;28;20036;-53
2022/08/06 00:48:28;;;;;;;1.50;0.85;;;23.30;51.30;;;;;;10536865;28;20035;-54
2022/08/06 00:53:29;;;;;;;1.25;0.70;;;23.30;51.40;;;;;;10518649;28;20467;-54
2022/08/06 00:58:30;;;;;;;2.38;0.98;;;23.30;51.30;;;;;;10517985;28;20052;-54
2022/08/06 01:03:31;;;;;;;2.50;0.90;;;23.30;51.30;;;;;;10517985;28;20111;-54
2022/08/06 01:08:31;;;;;;;2.00;1.00;;;23.30;51.60;;;;;;10535795;28;20092;-50
2022/08/06 01:13:32;;;;;;;1.58;1.20;;;23.30;51.70;;;;;;10536003;28;20539;-53
2022/08/06 01:18:54;;;;;;;2.50;0.70;;;23.20;51.80;;;;;;10535593;28;20463;-53
2022/08/06 01:24:30;;;;;;;1.90;0.73;;;23.20;51.60;;;;;;10514813;28;20036;-52
2022/08/06 01:29:39;;;;;;;1.58;1.05;;;23.20;51.30;;;;;;10516794;28;20039;-53
2022/08/06 01:34:58;;;;;;;1.48;0.50;;;23.20;51.30;;;;;;10517158;28;20034;-53
2022/08/06 01:40:13;;;;;;;1.58;0.77;;;23.20;51.30;;;;;;10517341;28;20668;-53
2022/08/06 01:45:17;;;;;;;1.30;0.80;;;23.20;51.40;;;;;;10520966;28;20043;-53
2022/08/06 01:50:29;;;;;;;3.35;1.20;;;23.20;52.00;;;;;;10516591;28;20028;-53
2022/08/06 01:55:36;;;;;;;2.67;1.00;;;23.10;51.40;;;;;;10517385;28;20035;-52
2022/08/06 02:00:43;;;;;;;3.35;1.40;;;23.20;51.40;;;;;;10516514;28;20481;-54
2022/08/06 02:05:45;;;;;;;2.22;1.05;;;23.10;51.50;;;;;;10516073;28;20044;-51
2022/08/06 02:10:48;;;;;;;1.48;1.02;;;23.10;51.40;;;;;;10515168;28;20020;-52
2022/08/06 02:15:50;;;;;;;2.00;0.88;;;23.20;51.60;;;;;;10533354;28;20040;-54
2022/08/06 02:20:54;;;;;;;1.83;0.80;;;23.10;51.60;;;;;;10498935;28;20051;-52
2022/08/06 02:25:56;;;;;;;1.98;0.70;;;23.10;51.50;;;;;;10511180;28;20438;-53
2022/08/06 02:30:58;;;;;;;1.58;0.82;;;23.10;52.10;;;;;;10519197;28;20487;-54
2022/08/06 02:36:14;;;;;;;1.17;1.08;;;23.10;51.50;;;;;;10533262;28;20471;-53
2022/08/06 02:41:31;;;;;;;1.35;0.80;;;23.10;51.30;;;;;;10514456;28;20048;-53
2022/08/06 02:47:08;;;;;;;2.22;0.75;;;23.10;51.50;;;;;;10514541;28;20463;-52
2022/08/06 02:52:38;;;;;;;3.25;1.08;;;23.10;51.30;;;;;;10523675;28;20442;-54
2022/08/06 02:57:56;;;;;;;2.33;0.80;;;23.00;51.40;;;;;;10516639;28;20097;-53
2022/08/06 03:03:01;;;;;;;2.75;0.93;;;23.00;51.20;;;;;;10514284;28;20055;-53
2022/08/06 03:08:05;;;;;;;1.25;0.80;;;23.00;51.20;;;;;;10513634;28;20042;-53
2022/08/06 03:13:07;;;;;;;3.08;0.80;;;23.00;51.20;;;;;;10514307;28;20017;-52
2022/08/06 03:18:09;;;;;;;1.98;0.90;;;23.00;51.30;;;;;;10513718;28;20043;-54
2022/08/06 03:23:11;;;;;;;1.63;0.93;;;23.00;51.40;;;;;;10515300;28;20504;-53
2022/08/06 03:28:14;;;;;;;2.65;0.73;;;22.90;51.10;;;;;;10509062;28;20040;-53
2022/08/06 03:33:17;;;;;;;1.17;0.80;;;23.00;51.20;;;;;;10535634;28;20035;-53
2022/08/06 03:38:19;;;;;;;2.60;0.85;;;23.00;51.20;;;;;;10520926;28;20044;-52
2022/08/06 03:43:20;;;;;;;2.50;1.30;;;22.90;51.10;;;;;;10521556;28;20020;-52
2022/08/06 03:48:24;;;;;;;1.65;0.70;;;22.90;51.10;;;;;;10539071;28;20036;-53
2022/08/06 03:53:26;;;;;;;2.30;0.88;;;22.90;51.10;;;;;;10539129;28;20032;-53
2022/08/06 03:58:28;;;;;;;1.52;0.70;;;22.90;51.10;;;;;;10514156;28;20733;-53
2022/08/06 04:03:29;;;;;;;1.80;0.88;;;22.90;51.00;;;;;;10522774;28;20376;-54
2022/08/06 04:08:32;;;;;;;1.40;0.60;;;22.90;51.10;;;;;;10524252;28;20036;-54
2022/08/06 04:13:34;;;;;;;1.35;0.68;;;22.90;51.10;;;;;;10507812;28;20024;-54
2022/08/06 04:18:38;;;;;;;2.00;1.00;;;22.90;51.10;;;;;;10541619;28;20032;-53
2022/08/06 04:23:38;;;;;;;1.83;1.05;;;22.80;51.10;;;;;;10519244;28;20034;-54
2022/08/06 04:28:43;;;;;;;1.85;1.20;;;22.90;51.30;;;;;;10523238;28;20120;-55
2022/08/06 04:33:45;;;;;;;2.72;1.45;;;22.90;51.30;;;;;;10498248;28;20050;-52
2022/08/06 04:38:46;;;;;;;2.75;2.10;;;22.90;51.20;;;;;;10519786;28;20040;-53
2022/08/06 04:43:47;;;;;;;4.00;2.72;;;22.80;51.40;;;;;;10519288;28;20031;-53
2022/08/06 04:48:48;;;;;;;2.83;2.50;;;22.80;51.50;;;;;;10505477;28;20094;-54
2022/08/06 04:53:49;;;;;;;3.95;3.65;;;22.80;51.50;;;;;;10501512;28;20031;-53
2022/08/06 04:58:49;;;;;;;4.05;3.65;;;22.80;51.60;;;;;;10536374;28;20036;-54
2022/08/06 05:03:50;;;;;;;4.90;4.50;;;22.80;52.10;;;;;;10517633;28;20035;-55
2022/08/06 05:09:01;;;;;;;4.03;3.72;;;22.80;51.90;;;;;;10535294;28;20111;-55
2022/08/06 05:14:09;;;;;;;4.20;2.90;;;22.70;51.90;;;;;;10518318;28;20028;-55
2022/08/06 05:19:19;;;;;;;9.90;3.43;;;22.80;52.60;;;;;;10517991;28;20055;-52
2022/08/06 05:24:20;;;;;;;20.70;3.25;;;22.80;52.20;;;;;;10512257;28;20028;-53
2022/08/06 05:29:21;;;;;;;7.05;1.48;;;22.90;52.00;;;;;;10502042;28;20487;-55
2022/08/06 05:34:22;;;;;;;5.32;1.42;;;22.60;46.90;;;;;;10516087;28;20039;-56
2022/08/06 05:39:23;;;;;;;5.95;1.67;;;22.60;50.10;;;;;;10534600;28;20143;-55
2022/08/06 05:44:24;;;;;;;10.77;1.55;;;22.70;51.00;;;;;;10534427;28;20483;-54
2022/08/06 05:49:43;;;;;;;10.45;1.58;;;22.70;50.50;;;;;;10499031;28;20059;-54
2022/08/06 05:55:00;;;;;;;11.17;1.50;;;22.70;50.70;;;;;;10516613;28;20044;-55
2022/08/06 06:00:09;;;;;;;7.68;1.70;;;22.70;51.20;;;;;;10533714;28;20298;-54
2022/08/06 06:05:12;;;;;;;19.23;2.55;;;22.60;51.00;;;;;;10516314;28;20119;-52
2022/08/06 06:10:14;;;;;;;22.50;2.90;;;22.80;50.70;;;;;;10501718;28;20028;-54
2022/08/06 06:15:17;;;;;;;25.90;2.33;;;22.80;51.70;;;;;;10499219;28;20031;-53
2022/08/06 06:20:55;;;;;;;11.73;3.25;;;22.80;51.90;;;;;;10523632;28;20032;-52
2022/08/06 06:26:20;;;;;;;12.30;1.88;;;22.70;52.00;;;;;;10520054;28;20036;-54
2022/08/06 06:31:34;;;;;;;11.55;2.45;;;22.70;52.30;;;;;;10523937;28;20375;-56
2022/08/06 06:37:04;;;;;;;8.70;1.98;;;22.70;52.40;;;;;;10518764;28;20051;-54
2022/08/06 06:42:16;;;;;;;10.25;2.03;;;22.70;52.60;;;;;;10532868;28;20107;-48
2022/08/06 06:47:43;;;;;;;12.65;1.75;;;22.70;52.80;;;;;;10511674;28;20036;-53
2022/08/06 06:52:48;;;;;;;11.43;2.33;;;22.70;52.80;;;;;;10517285;28;20491;-47
2022/08/06 06:57:58;;;;;;;15.98;2.72;;;22.70;53.10;;;;;;10513936;28;20036;-52
2022/08/06 07:03:01;;;;;;;9.57;1.90;;;22.70;53.80;;;;;;10530001;28;20032;-51
2022/08/06 07:08:04;;;;;;;7.93;1.70;;;22.70;53.20;;;;;;10511306;28;20051;-51
2022/08/06 07:13:07;;;;;;;7.63;1.90;;;22.70;53.40;;;;;;10512254;28;20036;-53
2022/08/06 07:18:09;;;;;;;8.15;1.92;;;22.60;53.50;;;;;;10529847;28;20043;-50
2022/08/06 07:23:11;;;;;;;3.90;1.13;;;22.60;53.50;;;;;;10530065;28;20039;-47
2022/08/06 07:28:14;;;;;;;2.88;1.08;;;22.60;53.70;;;;;;10529335;28;20471;-52
2022/08/06 07:33:16;;;;;;;5.47;1.38;;;22.70;53.50;;;;;;10513468;28;20036;-51
2022/08/06 07:38:20;;;;;;;7.32;1.40;;;22.70;53.50;;;;;;10513634;28;20044;-52
2022/08/06 07:43:30;;;;;;;3.88;0.93;;;22.70;53.40;;;;;;10531580;28;20040;-52
2022/08/06 07:49:07;;;;;;;5.85;1.63;;;22.70;53.60;;;;;;10513783;28;20063;-51
2022/08/06 07:54:09;;;;;;;3.08;1.05;;;22.70;53.70;;;;;;10455327;28;20075;-52
2022/08/06 07:59:11;;;;;;;4.72;1.30;;;22.70;53.70;;;;;;10512255;28;20024;-51
2022/08/06 08:09:32;;;;;;;3.17;1.52;;;22.70;53.80;;;;;;10531938;28;20036;-50
2022/08/06 08:14:34;;;;;;;6.30;1.58;;;22.70;54.00;;;;;;10502991;28;20558;-53
2022/08/06 08:19:35;;;;;;;4.03;1.02;;;22.70;54.00;;;;;;10537188;28;20039;-52
2022/08/06 08:24:37;;;;;;;4.88;1.48;;;22.70;54.10;;;;;;10505337;28;20033;-53
2022/08/06 08:29:40;;;;;;;5.78;1.30;;;22.70;53.90;;;;;;10535928;28;20463;-53
2022/08/06 08:34:41;;;;;;;6.40;1.70;;;22.80;54.00;;;;;;10535832;28;20035;-53
2022/08/06 08:39:41;;;;;;;3.47;0.90;;;22.70;54.00;;;;;;10516755;28;20058;-51
2022/08/06 08:44:42;;;;;;;3.90;1.20;;;22.70;54.00;;;;;;10535487;28;20081;-54
2022/08/06 08:49:54;;;;;;;3.10;0.90;;;22.70;54.10;;;;;;10517518;28;20046;-54
2022/08/06 08:55:01;;;;;;;4.00;1.27;;;22.80;54.10;;;;;;10517556;28;20032;-54
2022/08/06 09:00:05;;;;;;;3.83;0.93;;;22.80;54.10;;;;;;10513781;28;20028;-49
2022/08/06 09:05:07;;;;;;;7.45;1.25;;;22.80;54.10;;;;;;10535428;28;20036;-54
2022/08/06 09:10:09;;;;;;;4.45;1.55;;;22.80;54.00;;;;;;10535593;28;20024;-53
2022/08/06 09:15:10;;;;;;;7.80;1.45;;;22.80;53.90;;;;;;10511684;28;20028;-54
2022/08/06 09:20:11;;;;;;;7.60;1.40;;;22.80;53.90;;;;;;10516010;28;20031;-53
2022/08/06 09:25:34;;;;;;;7.22;1.55;;;22.80;53.90;;;;;;10535217;28;20119;-54
2022/08/06 09:30:36;;;;;;;4.85;1.38;;;22.80;53.80;;;;;;10535327;28;20108;-54
2022/08/06 09:35:37;;;;;;;7.80;1.42;;;22.80;53.90;;;;;;10514764;28;20149;-53
2022/08/06 09:40:37;;;;;;;7.82;1.30;;;22.80;54.00;;;;;;10514448;28;20040;-54
2022/08/06 09:45:44;;;;;;;5.75;1.33;;;22.80;54.10;;;;;;10514139;28;20028;-54
2022/08/06 09:50:46;;;;;;;5.38;1.30;;;22.90;54.20;;;;;;10516797;28;20021;-53
2022/08/06 09:55:48;;;;;;;3.67;1.20;;;22.80;54.10;;;;;;10534518;28;20480;-54
2022/08/06 10:00:49;;;;;;;4.32;1.00;;;22.80;54.10;;;;;;10516276;28;20032;-53
2022/08/06 10:06:14;;;;;;;2.90;0.80;;;22.80;54.20;;;;;;10533968;28;20407;-55
2022/08/06 10:11:36;;;;;;;4.05;1.02;;;22.90;53.80;;;;;;10515786;28;20165;-54
2022/08/06 10:16:37;;;;;;;4.03;1.17;;;22.90;54.10;;;;;;10516604;28;20040;-54
2022/08/06 10:21:38;;;;;;;4.65;1.42;;;22.90;54.30;;;;;;10531705;28;20586;-53
2022/08/06 10:26:41;;;;;;;4.05;1.45;;;22.90;54.50;;;;;;10513403;28;20089;-55
2022/08/06 10:31:44;;;;;;;6.32;0.98;;;22.90;56.00;;;;;;10514374;28;20039;-52
2022/08/06 10:36:53;;;;;;;2.58;1.27;;;23.10;58.80;;;;;;10497609;28;20169;-53
2022/08/06 10:41:56;;;;;;;2.80;1.10;;;23.10;57.00;;;;;;10530562;28;20031;-53
2022/08/06 10:46:57;;;;;;;2.58;0.93;;;23.00;52.70;;;;;;10514815;28;20690;-52
2022/08/06 10:51:58;;;;;;;3.85;1.20;;;23.00;52.40;;;;;;10501807;28;20031;-52
2022/08/06 10:57:01;;;;;;;4.97;1.05;;;23.00;52.80;;;;;;10532070;28;20149;-52
2022/08/06 11:02:41;;;;;;;4.38;2.08;;;23.00;53.20;;;;;;10531536;28;20555;-52
2022/08/06 11:08:21;;;;;;;8.38;1.10;;;23.00;53.30;;;;;;10532320;28;20024;-53
2022/08/06 11:13:45;;;;;;;4.63;0.93;;;23.00;53.50;;;;;;10529481;28;20105;-53
2022/08/06 11:19:06;;;;;;;8.68;1.95;;;23.00;53.90;;;;;;10515253;28;20031;-53
2022/08/06 11:24:07;;;;;;;3.75;1.40;;;23.00;54.00;;;;;;10531355;28;20040;-52
2022/08/06 11:29:11;;;;;;;5.15;1.05;;;22.90;54.00;;;;;;10513112;28;20426;-52
2022/08/06 11:34:14;;;;;;;7.40;1.98;;;22.90;54.20;;;;;;10513087;28;20078;-53
2022/08/06 11:39:20;;;;;;;5.45;1.50;;;22.90;54.60;;;;;;10531657;28;20036;-51
2022/08/06 11:44:26;;;;;;;6.53;1.40;;;22.90;54.50;;;;;;10533040;28;20036;-53
2022/08/06 11:49:47;;;;;;;4.20;1.40;;;23.00;54.70;;;;;;10538870;28;20054;-53
2022/08/06 11:54:47;;;;;;;5.72;2.03;;;23.00;54.70;;;;;;10520546;28;20419;-52
2022/08/06 11:59:54;;;;;;;4.75;1.63;;;23.00;54.70;;;;;;10520730;28;20039;-53
2022/08/06 12:04:56;;;;;;;2.00;1.02;;;23.10;54.70;;;;;;10538875;28;20784;-53
2022/08/06 12:10:06;;;;;;;3.65;0.93;;;23.10;54.70;;;;;;10538404;28;20031;-52
2022/08/06 12:15:12;;;;;;;6.50;1.10;;;23.00;54.80;;;;;;10538129;28;20040;-52
2022/08/06 12:20:13;;;;;;;2.38;0.77;;;23.00;55.00;;;;;;10520022;28;20031;-51
2022/08/06 12:25:14;;;;;;;2.53;0.93;;;22.90;54.90;;;;;;10537244;28;20632;-53
2022/08/06 12:30:15;;;;;;;7.20;1.60;;;22.90;55.00;;;;;;10519741;28;20073;-52
2022/08/06 12:35:16;;;;;;;3.15;1.17;;;22.90;55.10;;;;;;10519642;28;20081;-52
2022/08/06 12:40:28;;;;;;;8.13;1.20;;;23.00;54.40;;;;;;10537320;28;20177;-52
2022/08/06 12:45:32;;;;;;;6.03;1.45;;;22.90;53.70;;;;;;10528578;28;20036;-53
2022/08/06 12:50:36;;;;;;;4.85;1.85;;;22.90;53.40;;;;;;10536683;28;20135;-50
2022/08/06 12:55:50;;;;;;;2.38;0.73;;;22.90;53.60;;;;;;10535720;28;20028;-53
2022/08/06 13:00:56;;;;;;;1.40;0.70;;;22.80;53.60;;;;;;10502453;28;20692;-52
2022/08/06 13:06:01;;;;;;;1.52;0.80;;;22.80;53.70;;;;;;10517591;28;20111;-52
2022/08/06 13:11:03;;;;;;;1.60;0.80;;;22.80;53.80;;;;;;10518557;28;20020;-52
2022/08/06 13:16:12;;;;;;;1.90;0.70;;;22.80;54.00;;;;;;10517888;28;20932;-53
2022/08/06 13:21:21;;;;;;;2.03;0.73;;;22.80;54.10;;;;;;10517925;28;20028;-51
2022/08/06 13:26:24;;;;;;;1.52;0.55;;;22.80;54.20;;;;;;10526055;28;20067;-52
2022/08/06 13:31:24;;;;;;;2.58;0.95;;;22.90;54.30;;;;;;10530852;28;20043;-52
2022/08/06 13:36:28;;;;;;;1.42;0.60;;;22.90;54.20;;;;;;10535262;28;20108;-52
2022/08/06 13:41:31;;;;;;;2.97;0.93;;;22.90;54.10;;;;;;10534672;28;20082;-50
2022/08/06 13:46:42;;;;;;;2.15;0.85;;;22.80;54.30;;;;;;10514791;28;20044;-52
2022/08/06 13:51:43;;;;;;;1.23;0.50;;;22.80;54.40;;;;;;10534425;28;20067;-52
2022/08/06 13:56:44;;;;;;;3.83;1.13;;;22.80;54.50;;;;;;10534212;28;20118;-50
2022/08/06 14:01:46;;;;;;;2.13;0.70;;;22.80;54.40;;;;;;10534035;28;20040;-52
2022/08/06 14:06:53;;;;;;;1.75;0.70;;;22.80;54.20;;;;;;10533198;28;20032;-53
2022/08/06 14:11:58;;;;;;;11.90;1.65;;;22.80;54.80;;;;;;10532839;28;20035;-52
2022/08/06 14:17:00;;;;;;;10.70;1.63;;;22.80;55.90;;;;;;10532933;28;20034;-54
2022/08/06 14:22:02;;;;;;;5.85;0.98;;;22.90;56.50;;;;;;10531871;28;20420;-52
2022/08/06 14:27:03;;;;;;;4.07;1.00;;;22.90;56.30;;;;;;10515040;28;20559;-53
2022/08/06 14:32:05;;;;;;;2.92;1.05;;;22.80;54.60;;;;;;10532640;28;20039;-53
2022/08/06 14:37:06;;;;;;;4.05;0.75;;;22.70;54.70;;;;;;10514872;28;20079;-53
2022/08/06 14:47:26;;;;;;;4.63;1.15;;;22.70;54.80;;;;;;10532873;28;20490;-53
2022/08/06 14:52:27;;;;;;;3.30;1.27;;;22.70;55.10;;;;;;10532590;28;20028;-52
2022/08/06 14:57:27;;;;;;;5.35;1.10;;;22.70;55.30;;;;;;10531948;28;20028;-53
2022/08/06 15:02:28;;;;;;;3.17;1.00;;;22.70;55.40;;;;;;10531947;28;20613;-51
2022/08/06 15:07:30;;;;;;;2.35;0.80;;;22.70;55.40;;;;;;10532066;28;20429;-52
2022/08/06 15:12:31;;;;;;;2.33;0.80;;;22.70;55.90;;;;;;10531805;28;20047;-54
2022/08/06 15:17:32;;;;;;;3.00;1.30;;;22.70;55.60;;;;;;10531974;28;20043;-52
2022/08/06 15:22:33;;;;;;;3.15;1.23;;;22.60;55.60;;;;;;10539274;28;20032;-52
2022/08/06 15:27:34;;;;;;;2.33;0.82;;;22.60;55.70;;;;;;10540180;28;20402;-53
2022/08/06 15:32:34;;;;;;;1.63;0.63;;;22.60;55.70;;;;;;10539977;28;20024;-52
2022/08/06 15:37:35;;;;;;;2.22;0.98;;;22.70;56.00;;;;;;10539609;28;20047;-53
2022/08/06 15:42:36;;;;;;;2.28;1.13;;;22.70;56.20;;;;;;10539876;28;20028;-52
2022/08/06 15:47:36;;;;;;;2.95;1.15;;;22.70;56.10;;;;;;10521160;28;20024;-53
2022/08/06 15:52:37;;;;;;;2.15;0.60;;;22.60;56.10;;;;;;10538869;28;20102;-52
2022/08/06 15:57:38;;;;;;;2.72;0.93;;;22.60;55.90;;;;;;10538111;28;20036;-53
2022/08/06 16:02:39;;;;;;;5.47;1.00;;;22.60;56.20;;;;;;10519110;28;20594;-51
2022/08/06 16:07:40;;;;;;;3.08;1.48;;;22.60;56.60;;;;;;10538521;28;20020;-53
2022/08/06 16:12:41;;;;;;;8.73;1.15;;;22.70;56.40;;;;;;10538212;28;20034;-54
2022/08/06 16:17:42;;;;;;;4.18;1.10;;;22.80;55.60;;;;;;10538273;28;20028;-54
2022/08/06 16:22:43;;;;;;;4.82;1.20;;;22.90;54.60;;;;;;10519591;28;20030;-53
2022/08/06 16:27:43;;;;;;;5.43;1.98;;;23.00;54.10;;;;;;10519744;28;20039;-54
2022/08/06 16:32:44;;;;;;;5.63;2.47;;;23.00;54.80;;;;;;10536760;28;20375;-55
2022/08/06 16:37:45;;;;;;;7.65;3.55;;;23.10;57.00;;;;;;10537520;28;20063;-54
2022/08/06 16:42:47;;;;;;;12.85;2.42;;;23.20;58.30;;;;;;10519216;28;20028;-54
2022/08/06 16:47:48;;;;;;;8.77;2.55;;;23.40;53.90;;;;;;10519363;28;20024;-55
2022/08/06 16:52:49;;;;;;;6.93;2.65;;;23.40;53.60;;;;;;10528876;28;20036;-54
2022/08/06 16:57:50;;;;;;;6.90;2.10;;;23.30;53.40;;;;;;10537262;28;20028;-53
2022/08/06 17:02:50;;;;;;;5.18;1.83;;;23.10;52.80;;;;;;10536689;28;20173;-55
2022/08/06 17:07:52;;;;;;;6.45;1.70;;;23.10;52.30;;;;;;10518433;28;20051;-55
2022/08/06 17:12:53;;;;;;;4.05;1.58;;;23.00;51.90;;;;;;10518140;28;20425;-53
2022/08/06 17:17:54;;;;;;;10.57;1.88;;;23.00;51.90;;;;;;10536004;28;20040;-53
2022/08/06 17:22:55;;;;;;;5.50;1.88;;;22.90;50.80;;;;;;10534649;28;20036;-53
2022/08/06 17:27:55;;;;;;;7.55;2.10;;;22.90;51.10;;;;;;10514662;28;20043;-54
2022/08/06 17:32:56;;;;;;;10.25;1.83;;;22.90;50.90;;;;;;10534681;28;20123;-54
2022/08/06 17:37:58;;;;;;;8.30;2.60;;;22.90;51.10;;;;;;10534893;28;20047;-53
2022/08/06 17:43:06;;;;;;;6.72;1.35;;;22.90;51.10;;;;;;10533681;28;20135;-53
2022/08/06 17:48:07;;;;;;;2.85;1.50;;;22.80;51.50;;;;;;10509653;28;20024;-53
2022/08/06 17:53:11;;;;;;;3.80;1.75;;;22.80;51.70;;;;;;10534741;28;20024;-54
2022/08/06 17:58:12;;;;;;;4.97;2.00;;;22.80;51.80;;;;;;10534711;28;20099;-54
2022/08/06 18:03:14;;;;;;;4.10;1.50;;;22.80;51.90;;;;;;10534316;28;20542;-53
2022/08/06 18:08:14;;;;;;;5.70;1.70;;;22.80;51.90;;;;;;10490927;28;20048;-54
2022/08/06 18:13:17;;;;;;;5.50;1.65;;;22.70;52.00;;;;;;10531974;28;20020;-53
2022/08/06 18:18:19;;;;;;;3.17;1.10;;;22.70;52.10;;;;;;10533955;28;20364;-53
2022/08/06 18:23:20;;;;;;;4.75;1.40;;;22.70;52.30;;;;;;10533663;28;20493;-53
2022/08/06 18:28:21;;;;;;;3.42;1.60;;;22.70;52.50;;;;;;10533615;28;20036;-53
2022/08/06 18:33:21;;;;;;;2.80;1.27;;;22.70;52.60;;;;;;10533199;28;20421;-53
2022/08/06 18:38:23;;;;;;;2.40;1.25;;;22.70;52.70;;;;;;10530627;28;20479;-53
2022/08/06 18:43:23;;;;;;;4.60;1.23;;;22.70;52.70;;;;;;10514602;28;20036;-54
2022/08/06 18:48:26;;;;;;;2.95;1.30;;;22.70;52.90;;;;;;10532870;28;20442;-54
2022/08/06 18:53:26;;;;;;;4.38;1.45;;;22.70;53.00;;;;;;10531911;28;20056;-52
2022/08/06 18:58:27;;;;;;;4.03;1.13;;;22.70;53.00;;;;;;10532878;28;20027;-53
2022/08/06 19:03:28;;;;;;;1.85;1.08;;;22.70;53.20;;;;;;10513755;28;20038;-53
2022/08/06 19:08:28;;;;;;;3.53;1.27;;;22.70;53.30;;;;;;10531979;28;20068;-54
2022/08/06 19:13:29;;;;;;;4.50;1.40;;;22.70;53.40;;;;;;10531056;28;20054;-53
2022/08/06 19:18:30;;;;;;;3.05;1.50;;;22.70;53.40;;;;;;10532779;28;20371;-53
2022/08/06 19:23:30;;;;;;;2.63;1.08;;;22.70;53.60;;;;;;10531920;28;20166;-53
2022/08/06 19:28:31;;;;;;;2.70;1.00;;;22.70;53.60;;;;;;10531518;28;20556;-52
2022/08/06 19:33:32;;;;;;;2.00;1.08;;;22.60;53.70;;;;;;10531606;28;20028;-53
2022/08/06 19:38:32;;;;;;;3.95;1.30;;;22.60;53.80;;;;;;10530527;28;20047;-53
2022/08/06 19:43:33;;;;;;;3.97;1.55;;;22.60;53.80;;;;;;10528490;28;20387;-53
2022/08/06 19:48:34;;;;;;;4.57;1.90;;;22.70;54.60;;;;;;10529776;28;20028;-54
2022/08/06 19:53:35;;;;;;;4.85;1.63;;;22.70;54.60;;;;;;10511481;28;20467;-52
2022/08/06 19:58:36;;;;;;;8.32;1.23;;;22.70;54.90;;;;;;10511503;28;20035;-52
2022/08/06 20:03:40;;;;;;;2.40;1.48;;;22.70;54.80;;;;;;10511048;28;20039;-53
2022/08/06 20:08:41;;;;;;;3.22;1.13;;;22.70;55.00;;;;;;10535688;28;20047;-53
2022/08/06 20:13:41;;;;;;;1.45;1.00;;;22.60;55.00;;;;;;10518295;28;20103;-53
2022/08/06 20:18:43;;;;;;;2.03;1.10;;;22.60;55.00;;;;;;10519651;28;20020;-54
2022/08/06 20:23:44;;;;;;;2.40;0.98;;;22.60;55.00;;;;;;10537700;28;20036;-54
2022/08/06 20:28:44;;;;;;;2.50;0.80;;;22.60;55.10;;;;;;10520043;28;20413;-53
2022/08/06 20:33:45;;;;;;;2.50;0.73;;;22.60;55.10;;;;;;10519488;28;20444;-54
2022/08/06 20:38:46;;;;;;;1.92;1.20;;;22.60;55.20;;;;;;10537803;28;20101;-54
2022/08/06 20:43:47;;;;;;;2.53;1.10;;;22.60;55.20;;;;;;10537550;28;20028;-55
2022/08/06 20:48:48;;;;;;;1.33;0.70;;;22.60;55.10;;;;;;10530158;28;20024;-54
2022/08/06 20:53:48;;;;;;;1.48;0.93;;;22.60;55.10;;;;;;10535960;28;20028;-53
2022/08/06 20:58:49;;;;;;;1.13;0.60;;;22.60;55.20;;;;;;10535856;28;20016;-53
2022/08/06 21:03:50;;;;;;;1.17;0.80;;;22.60;55.10;;;;;;10536941;28;20028;-52
2022/08/06 21:08:51;;;;;;;1.15;0.65;;;22.60;55.80;;;;;;10518789;28;20399;-54
2022/08/06 21:13:51;;;;;;;2.25;1.08;;;22.60;55.20;;;;;;10517701;28;20067;-53
2022/08/06 21:18:52;;;;;;;1.42;0.80;;;22.60;55.10;;;;;;10501089;28;20044;-53
2022/08/06 21:23:53;;;;;;;1.50;0.80;;;22.60;55.10;;;;;;10535994;28;20085;-53
2022/08/06 21:28:54;;;;;;;0.88;0.60;;;22.60;55.10;;;;;;10516481;28;20556;-53
2022/08/06 21:33:55;;;;;;;1.55;0.70;;;22.60;55.00;;;;;;10517608;28;20027;-53
2022/08/06 21:38:59;;;;;;;1.65;0.70;;;22.60;55.10;;;;;;10535398;28;20387;-54
2022/08/06 21:44:02;;;;;;;1.08;0.60;;;22.60;55.00;;;;;;10535137;28;20020;-54
2022/08/06 21:49:02;;;;;;;1.10;0.63;;;22.60;55.00;;;;;;10521818;28;20055;-52
2022/08/06 21:54:04;;;;;;;2.47;0.90;;;22.50;54.90;;;;;;10516338;28;20032;-53
2022/08/06 21:59:05;;;;;;;1.85;0.82;;;22.60;54.90;;;;;;10534561;28;20538;-54
2022/08/06 22:04:05;;;;;;;2.25;0.90;;;22.50;54.90;;;;;;10534264;28;20123;-54
2022/08/06 22:09:06;;;;;;;2.03;0.90;;;22.60;54.90;;;;;;10534248;28;20035;-53
2022/08/06 22:14:07;;;;;;;2.65;0.80;;;22.50;54.80;;;;;;10533499;28;20032;-53
2022/08/06 22:19:07;;;;;;;1.27;0.60;;;22.50;54.80;;;;;;10533980;28;20123;-53
2022/08/06 22:24:08;;;;;;;2.22;0.93;;;22.50;54.90;;;;;;10533693;28;20054;-53
2022/08/06 22:29:09;;;;;;;1.15;0.75;;;22.50;54.80;;;;;;10532508;28;20036;-54
2022/08/06 22:34:10;;;;;;;1.58;0.82;;;22.50;54.80;;;;;;10533509;28;20380;-53
2022/08/06 22:39:10;;;;;;;1.83;0.70;;;22.50;54.80;;;;;;10533348;28;20044;-54
2022/08/06 22:44:11;;;;;;;2.25;0.80;;;22.50;54.80;;;;;;10514509;28;20102;-53
2022/08/06 22:49:12;;;;;;;1.00;0.70;;;22.50;54.80;;;;;;10532989;28;20127;-54
2022/08/06 22:54:12;;;;;;;1.30;0.90;;;22.50;54.80;;;;;;10514362;28;20136;-51
2022/08/06 22:59:13;;;;;;;1.33;0.77;;;22.50;54.90;;;;;;10532557;28;20116;-53
2022/08/06 23:04:14;;;;;;;1.40;0.60;;;22.50;54.90;;;;;;10531980;28;20111;-53
2022/08/06 23:09:14;;;;;;;1.35;0.70;;;22.40;54.80;;;;;;10532502;28;20028;-54
2022/08/06 23:14:15;;;;;;;1.10;0.68;;;22.40;54.80;;;;;;10514043;28;20039;-53
2022/08/06 23:19:16;;;;;;;1.15;0.60;;;22.40;54.80;;;;;;10532295;28;20032;-52
2022/08/06 23:24:16;;;;;;;2.45;0.90;;;22.40;54.80;;;;;;10531421;28;20032;-53
2022/08/06 23:29:17;;;;;;;2.15;1.02;;;22.40;54.80;;;;;;10531205;28;20031;-52
2022/08/06 23:34:18;;;;;;;1.42;0.82;;;22.40;54.80;;;;;;10531783;28;20494;-54
2022/08/06 23:39:19;;;;;;;1.33;0.90;;;22.40;54.80;;;;;;10531777;28;20067;-54
2022/08/06 23:44:19;;;;;;;1.17;0.70;;;22.40;54.90;;;;;;10539857;28;20027;-54
2022/08/06 23:49:21;;;;;;;1.58;0.90;;;22.40;54.90;;;;;;10539406;28;20039;-54
2022/08/06 23:54:23;;;;;;;1.13;0.70;;;22.40;54.80;;;;;;10540352;28;20364;-54
2022/08/06 23:59:23;;;;;;;0.90;0.57;;;22.40;54.80;;;;;;10521559;28;20035;-52
